Gaylordsville, Connecticut
Current Conditions -  °F | °C
As of 9:53 PM on Friday 19 Dec 2014 (Local Time) from KDXR Reporting Station
Clear Clear  
Wind Chill: 23°   Ceiling: Unl
Heat Index: 28°   Visibility: 10mi
Dew Point: 17°   Wind: 5mph
Humidity: 63%   Direction: 360°N
Pressure: 30.14"   Gusts: NA
Location:  41.65°N, 73.48°W
Report Text: KDXR 200253Z AUTO 36004KT 10SM CLR M02/M08 A3014 RMK AO2 SLP210 T10221083 51007
Loading
Personal Weather Stations






























Interactive Weather Map New forecast layout! Learn more

10-Day Weather Forecast

Advertisements
Track Severe Weather on mobile